Time;durP1;ratioP1;P1;durP2;ratioP2;P2;SDS_P1;SDS_P2;PMS_P1;PMS_P2;Temp;Humidity;BMP_temperature;BMP_pressure;BME280_temperature;BME280_humidity;BME280_pressure;Samples;Min_cycle;Max_cycle;Signal;HPM_P1;HPM_P2
2023/03/29 00:01:44;;;;;;;16.63;3.13;;;;;;;;;;5067070;28;20024;-67
2023/03/29 00:04:12;;;;;;;8.30;3.30;;;;;;;;;;5073232;28;20024;-69
2023/03/29 00:06:37;;;;;;;11.70;3.30;;;;;;;;;;5068566;28;20021;-68
2023/03/29 00:09:04;;;;;;;15.35;3.30;;;;;;;;;;5070277;28;20028;-66
2023/03/29 00:11:30;;;;;;;11.95;3.17;;;;;;;;;;5072299;28;20020;-70
2023/03/29 00:13:55;;;;;;;14.68;3.92;;;;;;;;;;5090746;28;20026;-68
2023/03/29 00:16:20;;;;;;;9.00;3.42;;;;;;;;;;5090565;28;20027;-68
2023/03/29 00:18:45;;;;;;;10.60;2.92;;;;;;;;;;5077415;28;20532;-68
2023/03/29 00:21:11;;;;;;;8.50;3.03;;;;;;;;;;5074567;28;20043;-66
2023/03/29 00:23:36;;;;;;;11.88;3.40;;;;;;;;;;5083078;28;20024;-68
2023/03/29 00:26:01;;;;;;;11.07;3.10;;;;;;;;;;5076747;28;20024;-65
2023/03/29 00:28:26;;;;;;;13.27;3.30;;;;;;;;;;5077266;28;20067;-68
2023/03/29 00:30:52;;;;;;;13.70;3.78;;;;;;;;;;5070742;28;20047;-68
2023/03/29 00:33:19;;;;;;;11.98;3.40;;;;;;;;;;5070188;28;20036;-70
2023/03/29 00:35:45;;;;;;;7.05;3.05;;;;;;;;;;5070598;28;20039;-68
2023/03/29 00:38:10;;;;;;;13.23;3.63;;;;;;;;;;5069454;28;20017;-68
2023/03/29 00:40:40;;;;;;;7.68;3.15;;;;;;;;;;5069744;28;20017;-69
2023/03/29 00:43:08;;;;;;;26.10;4.38;;;;;;;;;;5070518;28;20044;-67
2023/03/29 00:45:34;;;;;;;12.93;3.20;;;;;;;;;;5071328;28;20023;-65
2023/03/29 00:48:01;;;;;;;14.15;4.20;;;;;;;;;;5069472;28;20094;-67
2023/03/29 00:50:29;;;;;;;8.60;3.15;;;;;;;;;;5070160;28;20120;-68
2023/03/29 00:53:01;;;;;;;10.15;2.95;;;;;;;;;;5069241;28;20025;-66
2023/03/29 00:55:28;;;;;;;16.80;3.83;;;;;;;;;;5068958;28;20083;-67
2023/03/29 00:57:54;;;;;;;9.38;3.20;;;;;;;;;;5069486;28;20082;-67
2023/03/29 01:00:23;;;;;;;10.73;3.67;;;;;;;;;;5058804;28;20013;-69
2023/03/29 01:02:52;;;;;;;15.20;4.60;;;;;;;;;;5077338;28;20081;-67
2023/03/29 01:05:21;;;;;;;12.55;3.67;;;;;;;;;;5053364;28;20020;-68
2023/03/29 01:07:46;;;;;;;8.57;3.03;;;;;;;;;;5067513;28;20616;-66
2023/03/29 01:10:18;;;;;;;15.75;4.18;;;;;;;;;;5069255;28;20048;-69
2023/03/29 01:12:48;;;;;;;13.43;3.85;;;;;;;;;;5053005;28;20598;-66
2023/03/29 01:15:16;;;;;;;14.95;3.67;;;;;;;;;;5069855;28;20029;-67
2023/03/29 01:17:49;;;;;;;17.13;3.65;;;;;;;;;;5069134;28;20017;-66
2023/03/29 01:20:19;;;;;;;13.25;3.75;;;;;;;;;;5069965;28;20029;-68
2023/03/29 01:22:47;;;;;;;10.43;3.13;;;;;;;;;;5068900;28;20016;-68
2023/03/29 01:25:15;;;;;;;12.02;3.05;;;;;;;;;;5068547;28;20024;-68
2023/03/29 01:27:49;;;;;;;10.52;2.97;;;;;;;;;;5069067;28;20048;-67
2023/03/29 01:30:18;;;;;;;17.20;3.50;;;;;;;;;;5069612;28;20025;-69
2023/03/29 01:32:50;;;;;;;10.02;3.13;;;;;;;;;;5078334;28;20119;-67
2023/03/29 01:35:21;;;;;;;10.68;2.90;;;;;;;;;;5087053;28;20045;-68
2023/03/29 01:37:49;;;;;;;10.40;3.17;;;;;;;;;;5067970;28;20107;-67
2023/03/29 01:40:15;;;;;;;18.98;2.80;;;;;;;;;;5071176;28;20028;-67
2023/03/29 01:43:03;;;;;;;8.55;2.97;;;;;;;;;;5080274;28;20040;-66
2023/03/29 01:45:37;;;;;;;13.07;3.05;;;;;;;;;;5007479;28;20628;-68
2023/03/29 01:48:23;;;;;;;10.02;3.55;;;;;;;;;;5068546;28;20028;-67
2023/03/29 01:50:48;;;;;;;9.82;2.72;;;;;;;;;;5047578;28;20497;-68
2023/03/29 01:53:21;;;;;;;9.70;2.63;;;;;;;;;;5068724;28;20048;-68
2023/03/29 01:55:49;;;;;;;9.10;3.10;;;;;;;;;;5069081;28;20043;-68
2023/03/29 01:58:16;;;;;;;13.07;3.30;;;;;;;;;;5069747;28;20520;-67
2023/03/29 02:00:42;;;;;;;14.75;2.80;;;;;;;;;;5073174;28;20056;-69
2023/03/29 02:03:08;;;;;;;14.05;2.88;;;;;;;;;;5076088;28;20012;-66
2023/03/29 02:05:35;;;;;;;8.05;2.78;;;;;;;;;;5064282;28;20032;-68
2023/03/29 02:08:01;;;;;;;12.68;2.20;;;;;;;;;;5066309;28;20017;-66
2023/03/29 02:10:26;;;;;;;7.45;2.67;;;;;;;;;;5068699;28;20135;-69
2023/03/29 02:12:51;;;;;;;10.60;2.58;;;;;;;;;;5070046;28;20025;-67
2023/03/29 02:15:18;;;;;;;10.57;2.53;;;;;;;;;;5068897;28;20027;-67
2023/03/29 02:17:45;;;;;;;7.35;2.20;;;;;;;;;;5067717;28;20013;-69
2023/03/29 02:20:21;;;;;;;13.38;2.88;;;;;;;;;;5068382;28;20048;-67
2023/03/29 02:22:51;;;;;;;16.20;3.00;;;;;;;;;;5067816;28;20020;-69
2023/03/29 02:25:17;;;;;;;9.40;2.70;;;;;;;;;;5067123;28;20017;-69
2023/03/29 02:27:43;;;;;;;5.72;2.30;;;;;;;;;;5067225;28;20039;-66
2023/03/29 02:30:09;;;;;;;9.45;2.28;;;;;;;;;;5068319;28;20374;-68
2023/03/29 02:32:38;;;;;;;10.15;2.72;;;;;;;;;;5067801;28;20044;-69
2023/03/29 02:35:06;;;;;;;5.85;1.85;;;;;;;;;;5067985;28;20474;-68
2023/03/29 02:37:33;;;;;;;12.60;2.80;;;;;;;;;;5066974;28;20509;-66
2023/03/29 02:39:59;;;;;;;13.05;2.13;;;;;;;;;;5066888;28;20450;-67
2023/03/29 02:42:25;;;;;;;8.48;1.90;;;;;;;;;;5068215;28;20099;-66
2023/03/29 02:44:53;;;;;;;10.07;2.20;;;;;;;;;;5068240;28;20017;-66
2023/03/29 02:47:21;;;;;;;13.90;2.45;;;;;;;;;;5067125;28;20107;-69
2023/03/29 02:49:46;;;;;;;8.43;2.33;;;;;;;;;;5081114;28;20071;-69
2023/03/29 02:52:14;;;;;;;17.30;2.42;;;;;;;;;;5067617;28;20052;-67
2023/03/29 02:54:42;;;;;;;10.95;1.83;;;;;;;;;;5066559;28;20020;-68
2023/03/29 02:57:07;;;;;;;5.50;2.10;;;;;;;;;;5075774;28;20016;-69
2023/03/29 02:59:32;;;;;;;15.32;2.67;;;;;;;;;;5072690;28;20328;-68
2023/03/29 03:01:58;;;;;;;11.23;2.50;;;;;;;;;;5067397;28;20070;-70
2023/03/29 03:04:24;;;;;;;6.40;1.92;;;;;;;;;;5068785;28;20060;-67
2023/03/29 03:06:49;;;;;;;8.57;2.50;;;;;;;;;;5056896;28;20226;-69
2023/03/29 03:09:14;;;;;;;12.98;2.25;;;;;;;;;;5066610;28;20048;-68
2023/03/29 03:11:40;;;;;;;4.13;1.70;;;;;;;;;;5067436;28;20035;-66
2023/03/29 03:14:06;;;;;;;10.90;2.90;;;;;;;;;;5067960;28;20012;-69
2023/03/29 03:16:31;;;;;;;8.32;2.60;;;;;;;;;;5067102;28;20347;-69
2023/03/29 03:18:57;;;;;;;11.57;2.65;;;;;;;;;;5067057;28;20097;-69
2023/03/29 03:21:23;;;;;;;21.02;2.80;;;;;;;;;;5067466;28;20028;-67
2023/03/29 03:23:48;;;;;;;9.45;2.88;;;;;;;;;;5066727;28;20066;-69
2023/03/29 03:26:14;;;;;;;7.38;2.85;;;;;;;;;;5066479;28;20028;-67
2023/03/29 03:28:40;;;;;;;13.57;3.10;;;;;;;;;;5081164;28;20024;-66
2023/03/29 03:31:05;;;;;;;8.18;2.20;;;;;;;;;;5076347;28;20241;-69
2023/03/29 03:33:30;;;;;;;6.22;2.95;;;;;;;;;;5072000;28;20024;-67
2023/03/29 03:35:55;;;;;;;8.90;2.72;;;;;;;;;;5067321;28;20025;-68
2023/03/29 03:38:21;;;;;;;12.73;3.08;;;;;;;;;;5066335;28;20075;-68
2023/03/29 03:40:52;;;;;;;8.35;2.75;;;;;;;;;;5069303;28;20047;-68
2023/03/29 03:43:17;;;;;;;11.88;2.85;;;;;;;;;;5071592;28;20021;-68
2023/03/29 03:45:42;;;;;;;8.75;2.53;;;;;;;;;;5071477;28;20162;-66
2023/03/29 03:48:08;;;;;;;5.97;2.53;;;;;;;;;;5070772;28;20023;-67
2023/03/29 03:50:33;;;;;;;6.68;2.53;;;;;;;;;;5071432;28;20046;-66
2023/03/29 03:52:58;;;;;;;10.43;2.15;;;;;;;;;;5070753;28;20111;-68
2023/03/29 03:55:24;;;;;;;7.78;2.10;;;;;;;;;;5069973;28;20048;-67
2023/03/29 03:57:50;;;;;;;5.88;2.25;;;;;;;;;;5071263;28;20012;-64
2023/03/29 04:00:19;;;;;;;7.93;1.88;;;;;;;;;;5083981;28;20024;-67
2023/03/29 04:02:45;;;;;;;14.27;3.00;;;;;;;;;;5071511;28;20024;-68
2023/03/29 04:05:11;;;;;;;7.65;2.33;;;;;;;;;;5067534;28;20100;-65
2023/03/29 04:07:36;;;;;;;3.92;1.77;;;;;;;;;;5066980;28;20267;-68
2023/03/29 04:10:01;;;;;;;7.90;2.15;;;;;;;;;;5071072;28;20020;-66
2023/03/29 04:12:26;;;;;;;6.13;1.95;;;;;;;;;;5058829;28;20028;-68
2023/03/29 04:14:52;;;;;;;7.07;1.70;;;;;;;;;;5070996;28;20123;-65
2023/03/29 04:17:17;;;;;;;4.18;2.05;;;;;;;;;;5070905;28;20020;-66
2023/03/29 04:19:42;;;;;;;6.07;2.05;;;;;;;;;;5083029;28;20024;-65
2023/03/29 04:22:08;;;;;;;7.32;2.13;;;;;;;;;;5071792;28;20086;-68
2023/03/29 04:24:33;;;;;;;4.55;1.92;;;;;;;;;;5058795;28;20392;-66
2023/03/29 04:26:58;;;;;;;5.45;1.92;;;;;;;;;;5063843;28;20477;-66
2023/03/29 04:29:24;;;;;;;8.38;1.98;;;;;;;;;;5035785;28;20025;-68
2023/03/29 04:31:49;;;;;;;10.57;1.90;;;;;;;;;;5070402;28;20021;-67
2023/03/29 04:34:14;;;;;;;7.78;1.42;;;;;;;;;;5069932;28;20036;-68
2023/03/29 04:36:39;;;;;;;9.80;2.60;;;;;;;;;;5068967;28;20020;-68
2023/03/29 04:39:06;;;;;;;7.57;2.40;;;;;;;;;;5070073;28;20027;-69
2023/03/29 04:41:32;;;;;;;6.78;1.88;;;;;;;;;;5070842;28;20096;-66
2023/03/29 04:43:57;;;;;;;7.60;2.20;;;;;;;;;;5064324;28;20853;-69
2023/03/29 04:46:25;;;;;;;10.13;2.47;;;;;;;;;;5063336;28;20552;-69
2023/03/29 04:48:51;;;;;;;7.95;2.25;;;;;;;;;;5061655;28;20124;-67
2023/03/29 04:51:16;;;;;;;8.50;2.50;;;;;;;;;;5062076;28;20119;-69
2023/03/29 04:53:41;;;;;;;8.52;2.47;;;;;;;;;;5061761;28;20028;-67
2023/03/29 04:56:07;;;;;;;5.03;1.95;;;;;;;;;;5062004;28;20078;-65
2023/03/29 04:58:32;;;;;;;6.00;2.20;;;;;;;;;;5042174;28;20134;-69
2023/03/29 05:00:57;;;;;;;3.75;1.65;;;;;;;;;;5062340;28;20096;-67
2023/03/29 05:03:23;;;;;;;7.93;1.70;;;;;;;;;;5062796;28;20036;-70
2023/03/29 05:05:48;;;;;;;6.43;2.47;;;;;;;;;;5062287;28;20129;-67
2023/03/29 05:08:14;;;;;;;7.65;2.15;;;;;;;;;;5060352;28;20016;-69
2023/03/29 05:10:42;;;;;;;7.07;2.35;;;;;;;;;;5076505;28;20017;-68
2023/03/29 05:13:08;;;;;;;5.75;2.50;;;;;;;;;;5062995;28;20112;-65
2023/03/29 05:15:33;;;;;;;6.40;1.77;;;;;;;;;;5069942;28;20096;-68
2023/03/29 05:17:59;;;;;;;4.72;2.13;;;;;;;;;;5075722;28;20093;-70
2023/03/29 05:20:25;;;;;;;5.50;1.80;;;;;;;;;;5075515;28;20024;-67
2023/03/29 05:22:50;;;;;;;13.30;3.13;;;;;;;;;;5069110;28;20035;-69
2023/03/29 05:25:17;;;;;;;13.38;3.40;;;;;;;;;;5067518;28;20012;-68
2023/03/29 05:27:44;;;;;;;11.65;3.33;;;;;;;;;;5067897;28;20425;-69
2023/03/29 05:30:10;;;;;;;11.88;6.07;;;;;;;;;;5069364;28;20012;-68
2023/03/29 05:32:36;;;;;;;10.40;2.55;;;;;;;;;;5068779;28;20079;-67
2023/03/29 05:35:02;;;;;;;15.13;3.33;;;;;;;;;;5068989;28;20055;-68
2023/03/29 05:37:27;;;;;;;17.48;2.78;;;;;;;;;;5067496;28;20060;-66
2023/03/29 05:39:53;;;;;;;9.15;2.70;;;;;;;;;;5060837;28;20107;-67
2023/03/29 05:42:21;;;;;;;8.32;2.97;;;;;;;;;;5064118;28;20025;-65
2023/03/29 05:44:46;;;;;;;4.57;2.10;;;;;;;;;;5066588;28;20064;-68
2023/03/29 05:47:11;;;;;;;8.20;2.63;;;;;;;;;;5068161;28;20139;-66
2023/03/29 05:49:37;;;;;;;16.52;5.68;;;;;;;;;;5068176;28;20046;-66
2023/03/29 05:52:02;;;;;;;9.60;2.97;;;;;;;;;;5075148;28;20088;-66
2023/03/29 05:54:28;;;;;;;6.57;3.03;;;;;;;;;;5068697;28;20428;-67
2023/03/29 05:56:53;;;;;;;9.00;3.03;;;;;;;;;;5066413;28;20087;-69
2023/03/29 05:59:19;;;;;;;11.38;2.92;;;;;;;;;;5069272;28;20020;-65
2023/03/29 06:01:47;;;;;;;9.35;4.43;;;;;;;;;;5068118;28;20020;-66
2023/03/29 06:04:13;;;;;;;7.40;3.37;;;;;;;;;;5067614;28;20019;-67
2023/03/29 06:06:38;;;;;;;12.55;4.47;;;;;;;;;;5066545;28;20261;-68
2023/03/29 06:09:04;;;;;;;6.85;2.88;;;;;;;;;;5067487;28;20069;-67
2023/03/29 06:11:30;;;;;;;12.43;3.33;;;;;;;;;;5068356;28;20176;-65
2023/03/29 06:13:56;;;;;;;8.23;3.55;;;;;;;;;;5068965;28;20035;-67
2023/03/29 06:16:21;;;;;;;11.93;3.55;;;;;;;;;;5081058;28;20103;-69
2023/03/29 06:18:46;;;;;;;13.38;2.78;;;;;;;;;;5068903;28;20504;-64
2023/03/29 06:21:12;;;;;;;8.95;3.72;;;;;;;;;;5081060;28;20023;-66
2023/03/29 06:23:37;;;;;;;10.32;3.42;;;;;;;;;;5068331;28;20091;-65
2023/03/29 06:26:02;;;;;;;11.43;4.07;;;;;;;;;;5067725;28;20027;-67
2023/03/29 06:28:27;;;;;;;7.47;3.45;;;;;;;;;;5073295;28;20030;-66
2023/03/29 06:30:55;;;;;;;14.82;4.70;;;;;;;;;;5076770;28;20075;-69
2023/03/29 06:33:20;;;;;;;12.82;4.38;;;;;;;;;;5067435;28;20101;-67
2023/03/29 06:35:46;;;;;;;8.88;3.40;;;;;;;;;;5068006;28;20127;-66
2023/03/29 06:38:12;;;;;;;7.13;3.03;;;;;;;;;;5071696;28;20008;-68
2023/03/29 06:40:37;;;;;;;8.30;3.13;;;;;;;;;;5075849;28;20516;-67
2023/03/29 06:43:03;;;;;;;8.18;3.08;;;;;;;;;;5063160;28;20048;-68
2023/03/29 06:45:30;;;;;;;6.22;3.42;;;;;;;;;;5068717;28;20115;-66
2023/03/29 06:47:56;;;;;;;16.92;3.88;;;;;;;;;;5081073;28;20028;-65
2023/03/29 06:50:22;;;;;;;9.63;3.50;;;;;;;;;;5067949;28;20028;-66
2023/03/29 06:52:47;;;;;;;13.95;4.25;;;;;;;;;;5067493;28;20100;-67
2023/03/29 06:55:12;;;;;;;10.70;3.78;;;;;;;;;;5067497;28;20112;-67
2023/03/29 06:57:38;;;;;;;10.25;4.03;;;;;;;;;;5072345;28;20103;-67
2023/03/29 07:00:18;;;;;;;10.00;4.07;;;;;;;;;;5068760;28;20577;-68
2023/03/29 07:02:47;;;;;;;12.52;4.30;;;;;;;;;;5064034;28;20121;-68
2023/03/29 07:05:13;;;;;;;11.20;3.97;;;;;;;;;;5052606;28;20044;-66
2023/03/29 07:07:54;;;;;;;7.53;3.63;;;;;;;;;;5062524;28;21026;-67
2023/03/29 07:10:24;;;;;;;16.95;4.22;;;;;;;;;;5059797;28;20051;-65
2023/03/29 07:12:50;;;;;;;17.83;4.65;;;;;;;;;;5067042;28;20016;-65
2023/03/29 07:15:15;;;;;;;10.57;4.22;;;;;;;;;;5068254;28;20615;-67
2023/03/29 07:17:41;;;;;;;8.45;3.97;;;;;;;;;;5080812;28;20602;-64
2023/03/29 07:20:11;;;;;;;9.10;3.88;;;;;;;;;;5067762;28;20067;-65
2023/03/29 07:22:37;;;;;;;11.25;4.60;;;;;;;;;;5088107;28;20024;-67
2023/03/29 07:25:02;;;;;;;13.38;4.72;;;;;;;;;;5086845;28;20141;-65
2023/03/29 07:27:27;;;;;;;7.20;3.97;;;;;;;;;;5069758;28;20020;-67
2023/03/29 07:29:53;;;;;;;11.88;4.85;;;;;;;;;;5067791;28;20513;-67
2023/03/29 07:32:29;;;;;;;10.40;4.65;;;;;;;;;;5053634;28;20047;-66
2023/03/29 07:34:54;;;;;;;11.35;4.20;;;;;;;;;;5081068;28;20020;-68
2023/03/29 07:37:20;;;;;;;8.27;4.20;;;;;;;;;;5073832;28;20390;-68
2023/03/29 07:39:45;;;;;;;11.77;4.70;;;;;;;;;;5072723;28;20537;-66
2023/03/29 07:42:10;;;;;;;16.77;4.82;;;;;;;;;;5063719;28;20029;-67
2023/03/29 07:44:36;;;;;;;17.73;4.20;;;;;;;;;;5067096;28;20031;-68
2023/03/29 07:47:03;;;;;;;10.45;4.80;;;;;;;;;;5066368;28;20052;-65
2023/03/29 07:49:28;;;;;;;9.38;4.50;;;;;;;;;;5081600;28;20036;-67
2023/03/29 07:51:53;;;;;;;9.18;3.90;;;;;;;;;;5074642;28;20032;-66
2023/03/29 07:54:19;;;;;;;9.18;4.43;;;;;;;;;;5072994;28;20504;-67
2023/03/29 07:56:44;;;;;;;9.25;4.82;;;;;;;;;;5066263;28;20550;-65
2023/03/29 07:59:09;;;;;;;10.27;4.80;;;;;;;;;;5067194;28;20031;-69
2023/03/29 08:01:34;;;;;;;9.75;4.15;;;;;;;;;;5073762;28;20020;-66
2023/03/29 08:04:00;;;;;;;7.40;4.40;;;;;;;;;;5068500;28;20017;-66
2023/03/29 08:06:26;;;;;;;9.50;4.75;;;;;;;;;;5076138;28;20058;-68
2023/03/29 08:08:51;;;;;;;10.25;4.30;;;;;;;;;;5073666;28;20020;-66
2023/03/29 08:11:17;;;;;;;11.65;4.70;;;;;;;;;;5080237;28;20102;-67
2023/03/29 08:13:42;;;;;;;15.85;4.80;;;;;;;;;;5067248;28;20086;-65
2023/03/29 08:16:08;;;;;;;9.38;4.63;;;;;;;;;;5073162;28;20033;-67
2023/03/29 08:18:33;;;;;;;9.40;4.20;;;;;;;;;;5073979;28;20074;-66
2023/03/29 08:20:58;;;;;;;16.23;4.80;;;;;;;;;;5067511;28;20021;-68
2023/03/29 08:23:24;;;;;;;9.00;4.35;;;;;;;;;;5067054;28;20017;-68
2023/03/29 08:25:49;;;;;;;11.80;4.10;;;;;;;;;;5086472;28;20023;-66
2023/03/29 08:28:15;;;;;;;12.98;4.32;;;;;;;;;;5085293;28;20025;-67
2023/03/29 08:30:40;;;;;;;12.82;5.18;;;;;;;;;;5076691;28;20019;-67
2023/03/29 08:33:06;;;;;;;13.00;4.53;;;;;;;;;;5089628;28;20173;-65
2023/03/29 08:35:31;;;;;;;12.13;4.32;;;;;;;;;;5076902;28;20020;-66
2023/03/29 08:37:56;;;;;;;7.05;3.75;;;;;;;;;;5077613;28;20013;-68
2023/03/29 08:40:25;;;;;;;12.05;4.10;;;;;;;;;;5088312;28;20023;-65
2023/03/29 08:42:56;;;;;;;10.63;4.90;;;;;;;;;;5077536;28;20373;-67
2023/03/29 08:45:30;;;;;;;20.92;4.93;;;;;;;;;;5077315;28;20034;-67
2023/03/29 08:48:02;;;;;;;10.15;4.22;;;;;;;;;;5076595;28;20107;-67
2023/03/29 08:50:36;;;;;;;13.80;4.30;;;;;;;;;;5090773;28;20027;-67
2023/03/29 08:53:10;;;;;;;10.10;4.10;;;;;;;;;;5073719;28;20030;-67
2023/03/29 08:55:38;;;;;;;8.98;3.67;;;;;;;;;;5081191;28;20107;-66
2023/03/29 08:58:06;;;;;;;9.18;4.25;;;;;;;;;;5084914;28;20099;-68
2023/03/29 09:00:31;;;;;;;8.93;4.38;;;;;;;;;;5079342;28;20095;-67
2023/03/29 09:02:58;;;;;;;12.98;3.97;;;;;;;;;;5069403;28;20100;-68
2023/03/29 09:05:33;;;;;;;9.68;3.88;;;;;;;;;;5075614;28;20016;-64
2023/03/29 09:08:00;;;;;;;11.95;4.70;;;;;;;;;;5085098;28;20051;-65
2023/03/29 09:10:34;;;;;;;18.40;4.90;;;;;;;;;;5082118;28;20031;-67
2023/03/29 09:13:05;;;;;;;8.75;4.50;;;;;;;;;;5057595;28;20040;-66
2023/03/29 09:15:38;;;;;;;12.20;4.28;;;;;;;;;;5045629;28;20097;-67
2023/03/29 09:18:16;;;;;;;8.52;4.28;;;;;;;;;;5059534;28;20020;-66
2023/03/29 09:20:56;;;;;;;15.80;5.53;;;;;;;;;;5089952;28;20030;-65
2023/03/29 09:23:37;;;;;;;8.30;4.30;;;;;;;;;;5077744;28;20095;-66
2023/03/29 09:26:02;;;;;;;13.07;4.90;;;;;;;;;;5064395;28;20020;-66
2023/03/29 09:28:30;;;;;;;11.75;4.47;;;;;;;;;;5075597;28;20117;-68
2023/03/29 09:31:13;;;;;;;13.98;4.88;;;;;;;;;;5090463;28;20028;-67
2023/03/29 09:33:44;;;;;;;8.15;4.53;;;;;;;;;;5089259;28;20035;-66
2023/03/29 09:36:15;;;;;;;8.38;4.22;;;;;;;;;;5089542;28;20065;-67
2023/03/29 09:38:42;;;;;;;9.63;3.97;;;;;;;;;;5071118;28;20027;-66
2023/03/29 09:41:20;;;;;;;9.77;4.30;;;;;;;;;;5080635;28;20020;-66
2023/03/29 09:43:46;;;;;;;6.53;3.45;;;;;;;;;;5065231;28;20468;-68
2023/03/29 09:46:19;;;;;;;9.93;4.25;;;;;;;;;;5068961;28;20028;-67
2023/03/29 09:48:45;;;;;;;11.38;4.20;;;;;;;;;;5068900;28;20032;-66
2023/03/29 09:51:11;;;;;;;8.98;3.95;;;;;;;;;;5067296;28;20482;-65
2023/03/29 09:53:36;;;;;;;8.52;4.50;;;;;;;;;;5068061;28;20052;-66
2023/03/29 09:56:02;;;;;;;9.77;4.55;;;;;;;;;;5067788;28;20056;-67
2023/03/29 09:58:30;;;;;;;9.57;4.18;;;;;;;;;;5075862;28;20038;-66
2023/03/29 10:01:04;;;;;;;7.43;3.72;;;;;;;;;;5068061;28;20035;-67
2023/03/29 10:03:30;;;;;;;11.52;3.65;;;;;;;;;;5068072;28;20374;-68
2023/03/29 10:05:57;;;;;;;8.20;4.20;;;;;;;;;;5077798;28;20097;-67
2023/03/29 10:08:34;;;;;;;9.75;4.07;;;;;;;;;;5081810;28;20024;-66
2023/03/29 10:11:02;;;;;;;9.23;4.07;;;;;;;;;;5086581;28;20023;-68
2023/03/29 10:13:31;;;;;;;8.88;3.70;;;;;;;;;;5077663;28;20103;-68
2023/03/29 10:15:57;;;;;;;9.40;3.90;;;;;;;;;;5068972;28;20052;-65
2023/03/29 10:18:23;;;;;;;7.13;3.65;;;;;;;;;;5068461;28;20044;-68
2023/03/29 10:20:48;;;;;;;7.93;4.30;;;;;;;;;;5087180;28;20016;-68
2023/03/29 10:23:17;;;;;;;11.05;4.05;;;;;;;;;;5088258;28;20081;-65
2023/03/29 10:25:43;;;;;;;6.90;3.55;;;;;;;;;;5087856;28;20052;-68
2023/03/29 10:28:15;;;;;;;10.63;3.15;;;;;;;;;;5087817;28;20485;-67
2023/03/29 10:30:41;;;;;;;6.70;3.70;;;;;;;;;;5068174;28;20032;-68
2023/03/29 10:33:14;;;;;;;9.50;3.78;;;;;;;;;;5068577;28;20436;-67
2023/03/29 10:35:40;;;;;;;8.63;4.20;;;;;;;;;;5055641;28;20029;-67
2023/03/29 10:38:10;;;;;;;6.95;3.03;;;;;;;;;;5067837;28;20059;-66
2023/03/29 10:40:41;;;;;;;10.13;3.50;;;;;;;;;;5061730;28;20510;-66
2023/03/29 10:43:12;;;;;;;6.65;3.72;;;;;;;;;;5054882;28;20104;-66
2023/03/29 10:45:38;;;;;;;7.13;3.47;;;;;;;;;;5068196;28;20107;-67
2023/03/29 10:48:05;;;;;;;14.75;4.78;;;;;;;;;;5069292;28;20155;-68
2023/03/29 10:50:35;;;;;;;7.07;3.60;;;;;;;;;;5078504;28;20067;-67
2023/03/29 10:53:02;;;;;;;6.75;3.38;;;;;;;;;;5067960;28;20025;-67
2023/03/29 10:55:36;;;;;;;6.13;3.28;;;;;;;;;;5067619;28;20107;-66
2023/03/29 10:58:22;;;;;;;7.85;3.70;;;;;;;;;;5066752;28;20451;-66
2023/03/29 11:00:56;;;;;;;7.25;3.75;;;;;;;;;;5056628;28;20031;-66
2023/03/29 11:03:31;;;;;;;7.53;3.65;;;;;;;;;;5074044;28;20613;-69
2023/03/29 11:06:19;;;;;;;7.65;3.70;;;;;;;;;;5067626;28;20028;-66
2023/03/29 11:08:45;;;;;;;;;;;;;;;;;;5053104;28;20124;-68
2023/03/29 11:11:27;;;;;;;5.82;3.10;;;;;;;;;;5067938;28;20005;-69
2023/03/29 11:13:56;;;;;;;8.43;3.85;;;;;;;;;;5067909;28;20497;-66
2023/03/29 11:16:26;;;;;;;12.18;3.38;;;;;;;;;;5067092;28;20111;-67
2023/03/29 11:18:51;;;;;;;9.63;3.60;;;;;;;;;;5080894;28;20052;-66
2023/03/29 11:21:16;;;;;;;13.50;3.65;;;;;;;;;;5068096;28;20036;-68
2023/03/29 11:23:44;;;;;;;6.50;3.28;;;;;;;;;;5067746;28;20035;-68
2023/03/29 11:26:13;;;;;;;6.20;3.35;;;;;;;;;;5067767;28;20028;-66
2023/03/29 11:28:45;;;;;;;7.63;3.33;;;;;;;;;;5083705;28;20032;-67
2023/03/29 11:31:11;;;;;;;7.15;3.10;;;;;;;;;;5075689;28;20269;-66
2023/03/29 11:33:36;;;;;;;6.55;3.55;;;;;;;;;;5067423;28;20031;-67
2023/03/29 11:36:08;;;;;;;7.43;3.30;;;;;;;;;;5067905;28;20020;-65
2023/03/29 11:38:48;;;;;;;11.27;3.38;;;;;;;;;;5062239;28;20021;-65
2023/03/29 11:41:14;;;;;;;9.23;3.17;;;;;;;;;;5067926;28;20039;-66
2023/03/29 11:43:42;;;;;;;5.15;2.70;;;;;;;;;;5065556;28;20497;-67
2023/03/29 11:46:10;;;;;;;8.80;3.30;;;;;;;;;;5068257;28;20024;-66
2023/03/29 11:48:39;;;;;;;7.00;3.42;;;;;;;;;;5054172;28;20028;-66
2023/03/29 11:51:05;;;;;;;7.28;2.85;;;;;;;;;;5068292;28;20020;-66
2023/03/29 11:53:37;;;;;;;5.20;3.10;;;;;;;;;;5068206;28;20092;-67
2023/03/29 11:56:09;;;;;;;12.60;3.75;;;;;;;;;;5067512;28;20017;-66
2023/03/29 11:58:36;;;;;;;19.42;3.40;;;;;;;;;;5067523;28;20035;-68
2023/03/29 12:01:06;;;;;;;6.30;2.85;;;;;;;;;;5071296;28;20019;-66
2023/03/29 12:03:35;;;;;;;6.18;3.13;;;;;;;;;;5077162;28;20016;-68
2023/03/29 12:06:05;;;;;;;7.95;3.42;;;;;;;;;;5071635;28;20030;-66
2023/03/29 12:08:43;;;;;;;7.88;3.17;;;;;;;;;;5069619;28;20042;-66
2023/03/29 12:11:08;;;;;;;5.70;2.97;;;;;;;;;;5071887;28;20021;-67
2023/03/29 12:13:41;;;;;;;5.88;3.10;;;;;;;;;;5053715;28;20051;-66
2023/03/29 12:16:06;;;;;;;6.60;3.03;;;;;;;;;;5070679;28;20115;-67
2023/03/29 12:18:35;;;;;;;7.67;3.17;;;;;;;;;;5069274;28;20127;-67
2023/03/29 12:21:02;;;;;;;5.45;3.25;;;;;;;;;;5071168;28;20994;-66
2023/03/29 12:23:29;;;;;;;10.45;3.85;;;;;;;;;;5070667;28;20065;-69
2023/03/29 12:26:03;;;;;;;16.60;3.42;;;;;;;;;;5083904;28;20040;-67
2023/03/29 12:28:32;;;;;;;6.07;3.40;;;;;;;;;;5084774;28;20068;-68
2023/03/29 12:31:07;;;;;;;7.38;2.90;;;;;;;;;;5083641;28;20025;-67
2023/03/29 12:33:44;;;;;;;6.80;2.95;;;;;;;;;;5084028;28;20062;-68
2023/03/29 12:36:10;;;;;;;8.77;2.95;;;;;;;;;;5071189;28;20598;-68
2023/03/29 12:38:36;;;;;;;8.13;3.13;;;;;;;;;;5073452;28;20016;-66
2023/03/29 12:41:09;;;;;;;4.82;2.75;;;;;;;;;;5090837;28;20466;-67
2023/03/29 12:43:38;;;;;;;10.60;3.03;;;;;;;;;;5067555;28;20147;-68
2023/03/29 12:46:08;;;;;;;6.07;2.75;;;;;;;;;;5070286;28;20036;-66
2023/03/29 12:48:36;;;;;;;6.85;2.90;;;;;;;;;;5057203;28;20503;-65
2023/03/29 12:51:13;;;;;;;5.93;2.40;;;;;;;;;;5071053;28;20026;-66
2023/03/29 12:53:40;;;;;;;7.68;3.03;;;;;;;;;;5069680;28;20047;-66
2023/03/29 12:56:07;;;;;;;7.68;3.25;;;;;;;;;;5083600;28;20023;-68
2023/03/29 12:58:38;;;;;;;5.55;2.47;;;;;;;;;;5078548;28;20024;-66
2023/03/29 13:01:05;;;;;;;7.68;3.13;;;;;;;;;;5073745;28;20366;-66
2023/03/29 13:03:33;;;;;;;6.18;2.53;;;;;;;;;;5064249;28;20439;-67
2023/03/29 13:06:03;;;;;;;7.78;2.67;;;;;;;;;;5076016;28;20031;-68
2023/03/29 13:08:32;;;;;;;8.38;2.70;;;;;;;;;;5068084;28;20025;-68
2023/03/29 13:10:57;;;;;;;8.85;2.97;;;;;;;;;;5068966;28;20021;-68
2023/03/29 13:13:25;;;;;;;6.90;2.13;;;;;;;;;;5071554;28;20029;-66
2023/03/29 13:15:50;;;;;;;6.78;2.95;;;;;;;;;;5070584;28;20032;-66
2023/03/29 13:18:32;;;;;;;8.60;2.30;;;;;;;;;;5069877;28;20024;-68
2023/03/29 13:21:24;;;;;;;7.50;3.03;;;;;;;;;;5056679;28;20020;-67
2023/03/29 13:24:01;;;;;;;4.72;2.40;;;;;;;;;;5063485;28;20036;-67
2023/03/29 13:26:26;;;;;;;7.28;2.53;;;;;;;;;;5069104;28;20108;-69
2023/03/29 13:29:02;;;;;;;9.75;2.83;;;;;;;;;;5075597;28;20047;-68
2023/03/29 13:31:30;;;;;;;8.60;2.50;;;;;;;;;;5088544;28;20039;-67
2023/03/29 13:33:56;;;;;;;6.32;2.88;;;;;;;;;;5072936;22;20079;-68
2023/03/29 13:36:39;;;;;;;6.05;2.40;;;;;;;;;;5070122;28;20024;-68
2023/03/29 13:39:05;;;;;;;5.55;2.65;;;;;;;;;;5068514;28;20449;-68
2023/03/29 13:41:51;;;;;;;9.65;3.17;;;;;;;;;;5068623;28;20032;-69
2023/03/29 13:44:24;;;;;;;7.70;2.30;;;;;;;;;;5061101;28;20508;-71
2023/03/29 13:47:00;;;;;;;6.93;2.30;;;;;;;;;;5069750;28;20398;-69
2023/03/29 13:49:26;;;;;;;12.63;2.70;;;;;;;;;;5069780;28;20031;-69
2023/03/29 13:51:51;;;;;;;6.53;2.67;;;;;;;;;;5070882;28;20048;-68
2023/03/29 13:54:23;;;;;;;7.10;2.50;;;;;;;;;;5069606;28;20055;-69
2023/03/29 13:56:55;;;;;;;7.18;2.85;;;;;;;;;;5069564;28;20021;-70
2023/03/29 13:59:30;;;;;;;5.90;2.83;;;;;;;;;;5069851;28;20078;-69
2023/03/29 14:01:59;;;;;;;7.55;2.80;;;;;;;;;;5069089;28;20016;-70
2023/03/29 14:04:25;;;;;;;12.02;2.97;;;;;;;;;;5059099;28;20032;-71
2023/03/29 14:06:52;;;;;;;6.43;2.10;;;;;;;;;;5069098;28;20535;-68
2023/03/29 14:09:20;;;;;;;7.72;2.72;;;;;;;;;;5068760;28;20529;-69
2023/03/29 14:11:46;;;;;;;6.95;2.25;;;;;;;;;;5069588;28;20099;-68
2023/03/29 14:14:11;;;;;;;7.80;2.28;;;;;;;;;;5068008;28;20048;-69
2023/03/29 14:16:38;;;;;;;6.47;2.20;;;;;;;;;;5069643;28;20478;-69
2023/03/29 14:19:05;;;;;;;5.85;2.20;;;;;;;;;;5069448;28;20415;-67
2023/03/29 14:21:30;;;;;;;6.65;2.83;;;;;;;;;;5068290;28;20028;-68
2023/03/29 14:24:00;;;;;;;7.40;2.40;;;;;;;;;;5068064;28;20016;-68
2023/03/29 14:26:29;;;;;;;4.97;2.40;;;;;;;;;;5068719;28;20029;-69
2023/03/29 14:28:55;;;;;;;4.82;2.38;;;;;;;;;;5069413;28;20406;-69
2023/03/29 14:31:21;;;;;;;6.65;2.63;;;;;;;;;;5070138;28;20024;-68
2023/03/29 14:33:50;;;;;;;4.63;2.43;;;;;;;;;;5058124;28;20080;-68
2023/03/29 14:36:16;;;;;;;6.63;2.72;;;;;;;;;;5057960;28;20280;-69
2023/03/29 14:38:44;;;;;;;9.27;2.88;;;;;;;;;;5065480;28;20100;-68
2023/03/29 14:41:09;;;;;;;13.57;3.00;;;;;;;;;;5059960;28;20020;-69
2023/03/29 14:43:35;;;;;;;9.27;2.63;;;;;;;;;;5069864;28;20016;-68